sensor_id;sensor_type;location;lat;lon;timestamp;P1;durP1;ratioP1;P2;durP2;ratioP2
36597;SDS011;22607;49.550;11.940;2022-09-16T00:00:26;8.75;;;3.05;;
36597;SDS011;22607;49.550;11.940;2022-09-16T00:02:53;9.00;;;3.22;;
36597;SDS011;22607;49.550;11.940;2022-09-16T00:05:20;8.60;;;2.80;;
36597;SDS011;22607;49.550;11.940;2022-09-16T00:07:47;7.60;;;3.15;;
36597;SDS011;22607;49.550;11.940;2022-09-16T00:10:14;8.93;;;3.10;;
36597;SDS011;22607;49.550;11.940;2022-09-16T00:12:41;8.05;;;2.95;;
36597;SDS011;22607;49.550;11.940;2022-09-16T00:15:08;7.82;;;2.90;;
36597;SDS011;22607;49.550;11.940;2022-09-16T00:17:35;8.27;;;3.13;;
36597;SDS011;22607;49.550;11.940;2022-09-16T00:20:03;8.13;;;2.97;;
36597;SDS011;22607;49.550;11.940;2022-09-16T00:22:31;8.63;;;3.13;;
36597;SDS011;22607;49.550;11.940;2022-09-16T00:24:58;8.02;;;3.63;;
36597;SDS011;22607;49.550;11.940;2022-09-16T00:27:24;7.43;;;2.80;;
36597;SDS011;22607;49.550;11.940;2022-09-16T00:29:51;10.95;;;4.00;;
36597;SDS011;22607;49.550;11.940;2022-09-16T00:32:18;9.40;;;3.72;;
36597;SDS011;22607;49.550;11.940;2022-09-16T00:34:45;7.60;;;3.15;;
36597;SDS011;22607;49.550;11.940;2022-09-16T00:37:11;8.25;;;3.50;;
36597;SDS011;22607;49.550;11.940;2022-09-16T00:39:38;8.85;;;3.70;;
36597;SDS011;22607;49.550;11.940;2022-09-16T00:42:04;9.43;;;3.78;;
36597;SDS011;22607;49.550;11.940;2022-09-16T00:47:20;8.95;;;3.60;;
36597;SDS011;22607;49.550;11.940;2022-09-16T00:49:52;7.50;;;3.60;;
36597;SDS011;22607;49.550;11.940;2022-09-16T00:52:24;9.07;;;4.05;;
36597;SDS011;22607;49.550;11.940;2022-09-16T00:54:52;8.45;;;3.25;;
36597;SDS011;22607;49.550;11.940;2022-09-16T00:57:19;9.77;;;3.40;;
36597;SDS011;22607;49.550;11.940;2022-09-16T00:59:47;8.52;;;3.72;;
36597;SDS011;22607;49.550;11.940;2022-09-16T01:02:18;8.82;;;3.33;;
36597;SDS011;22607;49.550;11.940;2022-09-16T01:04:57;9.98;;;3.58;;
36597;SDS011;22607;49.550;11.940;2022-09-16T01:07:32;8.82;;;4.03;;
36597;SDS011;22607;49.550;11.940;2022-09-16T01:10:05;8.40;;;3.20;;
36597;SDS011;22607;49.550;11.940;2022-09-16T01:12:33;10.80;;;4.63;;
36597;SDS011;22607;49.550;11.940;2022-09-16T01:15:01;8.45;;;3.35;;
36597;SDS011;22607;49.550;11.940;2022-09-16T01:23:08;8.45;;;3.35;;
36597;SDS011;22607;49.550;11.940;2022-09-16T01:37:15;8.55;;;4.05;;
36597;SDS011;22607;49.550;11.940;2022-09-16T01:45:20;9.18;;;4.15;;
36597;SDS011;22607;49.550;11.940;2022-09-16T01:47:59;9.45;;;4.40;;
36597;SDS011;22607;49.550;11.940;2022-09-16T02:02:31;9.65;;;4.30;;
36597;SDS011;22607;49.550;11.940;2022-09-16T02:05:04;9.90;;;4.25;;
36597;SDS011;22607;49.550;11.940;2022-09-16T02:07:37;8.88;;;3.90;;
36597;SDS011;22607;49.550;11.940;2022-09-16T02:10:24;9.55;;;4.30;;
36597;SDS011;22607;49.550;11.940;2022-09-16T02:12:55;12.00;;;4.97;;
36597;SDS011;22607;49.550;11.940;2022-09-16T02:15:27;9.18;;;4.28;;
36597;SDS011;22607;49.550;11.940;2022-09-16T02:18:00;10.38;;;4.43;;
36597;SDS011;22607;49.550;11.940;2022-09-16T02:20:32;10.18;;;4.45;;
36597;SDS011;22607;49.550;11.940;2022-09-16T02:25:33;10.90;;;5.13;;
36597;SDS011;22607;49.550;11.940;2022-09-16T02:28:04;12.30;;;4.95;;
36597;SDS011;22607;49.550;11.940;2022-09-16T02:30:39;10.75;;;4.70;;
36597;SDS011;22607;49.550;11.940;2022-09-16T02:33:10;10.50;;;4.47;;
36597;SDS011;22607;49.550;11.940;2022-09-16T02:35:38;11.90;;;5.80;;
36597;SDS011;22607;49.550;11.940;2022-09-16T02:38:08;11.32;;;5.32;;
36597;SDS011;22607;49.550;11.940;2022-09-16T02:40:41;11.45;;;5.22;;
36597;SDS011;22607;49.550;11.940;2022-09-16T02:43:17;11.65;;;5.40;;
36597;SDS011;22607;49.550;11.940;2022-09-16T02:45:50;11.63;;;5.55;;
36597;SDS011;22607;49.550;11.940;2022-09-16T02:51:45;11.90;;;4.72;;
36597;SDS011;22607;49.550;11.940;2022-09-16T02:56:36;12.18;;;5.30;;
36597;SDS011;22607;49.550;11.940;2022-09-16T02:59:06;11.15;;;4.80;;
36597;SDS011;22607;49.550;11.940;2022-09-16T03:01:42;10.05;;;4.53;;
36597;SDS011;22607;49.550;11.940;2022-09-16T03:04:12;10.25;;;5.28;;
36597;SDS011;22607;49.550;11.940;2022-09-16T03:06:41;13.57;;;5.07;;
36597;SDS011;22607;49.550;11.940;2022-09-16T03:09:10;10.60;;;5.10;;
36597;SDS011;22607;49.550;11.940;2022-09-16T03:17:22;13.68;;;5.82;;
36597;SDS011;22607;49.550;11.940;2022-09-16T03:30:37;10.38;;;4.30;;
36597;SDS011;22607;49.550;11.940;2022-09-16T03:33:14;11.15;;;5.30;;
36597;SDS011;22607;49.550;11.940;2022-09-16T03:35:46;11.85;;;5.13;;
36597;SDS011;22607;49.550;11.940;2022-09-16T03:38:15;10.25;;;4.28;;
36597;SDS011;22607;49.550;11.940;2022-09-16T03:40:45;10.35;;;3.83;;
36597;SDS011;22607;49.550;11.940;2022-09-16T03:43:14;11.13;;;5.35;;
36597;SDS011;22607;49.550;11.940;2022-09-16T03:45:42;9.80;;;4.13;;
36597;SDS011;22607;49.550;11.940;2022-09-16T03:48:09;10.05;;;5.88;;
36597;SDS011;22607;49.550;11.940;2022-09-16T03:50:38;9.07;;;4.43;;
36597;SDS011;22607;49.550;11.940;2022-09-16T03:53:05;11.25;;;5.50;;
36597;SDS011;22607;49.550;11.940;2022-09-16T03:55:31;10.20;;;5.03;;
36597;SDS011;22607;49.550;11.940;2022-09-16T03:57:58;11.55;;;5.60;;
36597;SDS011;22607;49.550;11.940;2022-09-16T04:00:24;11.93;;;4.95;;
36597;SDS011;22607;49.550;11.940;2022-09-16T04:02:51;10.30;;;4.93;;
36597;SDS011;22607;49.550;11.940;2022-09-16T04:05:18;10.50;;;4.53;;
36597;SDS011;22607;49.550;11.940;2022-09-16T04:07:46;11.43;;;4.32;;
36597;SDS011;22607;49.550;11.940;2022-09-16T04:10:14;11.13;;;5.45;;
36597;SDS011;22607;49.550;11.940;2022-09-16T04:12:41;11.95;;;4.80;;
36597;SDS011;22607;49.550;11.940;2022-09-16T04:15:07;11.18;;;5.40;;
36597;SDS011;22607;49.550;11.940;2022-09-16T04:17:34;10.75;;;5.10;;
36597;SDS011;22607;49.550;11.940;2022-09-16T04:20:01;10.70;;;4.50;;
36597;SDS011;22607;49.550;11.940;2022-09-16T04:22:29;9.77;;;4.43;;
36597;SDS011;22607;49.550;11.940;2022-09-16T04:24:56;10.18;;;4.80;;
36597;SDS011;22607;49.550;11.940;2022-09-16T04:27:23;9.20;;;3.90;;
36597;SDS011;22607;49.550;11.940;2022-09-16T04:29:49;9.40;;;3.92;;
36597;SDS011;22607;49.550;11.940;2022-09-16T04:32:16;11.10;;;4.40;;
36597;SDS011;22607;49.550;11.940;2022-09-16T04:34:43;11.10;;;4.63;;
36597;SDS011;22607;49.550;11.940;2022-09-16T04:37:09;9.10;;;3.72;;
36597;SDS011;22607;49.550;11.940;2022-09-16T04:39:36;11.77;;;4.70;;
36597;SDS011;22607;49.550;11.940;2022-09-16T04:42:02;9.63;;;4.50;;
36597;SDS011;22607;49.550;11.940;2022-09-16T04:44:30;11.95;;;5.20;;
36597;SDS011;22607;49.550;11.940;2022-09-16T04:46:57;10.93;;;4.95;;
36597;SDS011;22607;49.550;11.940;2022-09-16T04:49:23;10.75;;;4.90;;
36597;SDS011;22607;49.550;11.940;2022-09-16T04:51:50;10.15;;;4.25;;
36597;SDS011;22607;49.550;11.940;2022-09-16T04:54:17;9.18;;;4.05;;
36597;SDS011;22607;49.550;11.940;2022-09-16T04:56:44;10.50;;;5.15;;
36597;SDS011;22607;49.550;11.940;2022-09-16T04:59:11;9.98;;;4.78;;
36597;SDS011;22607;49.550;11.940;2022-09-16T05:01:38;10.57;;;5.68;;
36597;SDS011;22607;49.550;11.940;2022-09-16T05:04:06;11.00;;;6.25;;
36597;SDS011;22607;49.550;11.940;2022-09-16T05:06:34;12.25;;;4.70;;
36597;SDS011;22607;49.550;11.940;2022-09-16T05:09:02;9.77;;;4.70;;
36597;SDS011;22607;49.550;11.940;2022-09-16T05:11:30;9.70;;;5.22;;
36597;SDS011;22607;49.550;11.940;2022-09-16T05:14:00;10.63;;;5.63;;
36597;SDS011;22607;49.550;11.940;2022-09-16T05:16:28;10.32;;;4.97;;
36597;SDS011;22607;49.550;11.940;2022-09-16T05:18:56;11.90;;;6.18;;
36597;SDS011;22607;49.550;11.940;2022-09-16T05:21:25;11.43;;;5.75;;
36597;SDS011;22607;49.550;11.940;2022-09-16T05:23:53;9.85;;;4.97;;
36597;SDS011;22607;49.550;11.940;2022-09-16T05:26:22;10.70;;;5.28;;
36597;SDS011;22607;49.550;11.940;2022-09-16T05:28:51;12.15;;;5.50;;
36597;SDS011;22607;49.550;11.940;2022-09-16T05:31:19;10.82;;;5.03;;
36597;SDS011;22607;49.550;11.940;2022-09-16T05:33:58;10.90;;;5.13;;
36597;SDS011;22607;49.550;11.940;2022-09-16T05:36:28;10.82;;;5.60;;
36597;SDS011;22607;49.550;11.940;2022-09-16T05:38:57;11.85;;;5.63;;
36597;SDS011;22607;49.550;11.940;2022-09-16T05:41:44;12.68;;;5.80;;
36597;SDS011;22607;49.550;11.940;2022-09-16T05:44:11;11.27;;;5.85;;
36597;SDS011;22607;49.550;11.940;2022-09-16T05:46:38;11.45;;;5.13;;
36597;SDS011;22607;49.550;11.940;2022-09-16T05:49:10;10.07;;;5.40;;
36597;SDS011;22607;49.550;11.940;2022-09-16T05:51:38;9.77;;;4.80;;
36597;SDS011;22607;49.550;11.940;2022-09-16T05:54:06;10.95;;;5.60;;
36597;SDS011;22607;49.550;11.940;2022-09-16T05:56:33;9.93;;;5.32;;
36597;SDS011;22607;49.550;11.940;2022-09-16T05:59:00;11.80;;;5.35;;
36597;SDS011;22607;49.550;11.940;2022-09-16T06:01:30;11.05;;;5.35;;
36597;SDS011;22607;49.550;11.940;2022-09-16T06:04:01;10.70;;;5.20;;
36597;SDS011;22607;49.550;11.940;2022-09-16T06:06:31;10.45;;;5.22;;
36597;SDS011;22607;49.550;11.940;2022-09-16T06:08:58;11.02;;;4.95;;
36597;SDS011;22607;49.550;11.940;2022-09-16T06:11:30;10.70;;;5.53;;
36597;SDS011;22607;49.550;11.940;2022-09-16T06:13:57;14.02;;;5.50;;
36597;SDS011;22607;49.550;11.940;2022-09-16T06:16:27;12.13;;;6.00;;
36597;SDS011;22607;49.550;11.940;2022-09-16T06:18:57;15.52;;;8.73;;
36597;SDS011;22607;49.550;11.940;2022-09-16T06:21:25;16.65;;;9.30;;
36597;SDS011;22607;49.550;11.940;2022-09-16T06:23:53;12.18;;;6.47;;
36597;SDS011;22607;49.550;11.940;2022-09-16T06:26:21;11.05;;;6.15;;
36597;SDS011;22607;49.550;11.940;2022-09-16T06:28:50;11.02;;;5.22;;
36597;SDS011;22607;49.550;11.940;2022-09-16T06:31:18;11.45;;;5.32;;
36597;SDS011;22607;49.550;11.940;2022-09-16T06:33:49;10.60;;;4.75;;
36597;SDS011;22607;49.550;11.940;2022-09-16T06:36:18;10.05;;;4.53;;
36597;SDS011;22607;49.550;11.940;2022-09-16T06:38:49;9.90;;;4.50;;
36597;SDS011;22607;49.550;11.940;2022-09-16T06:41:17;13.23;;;4.53;;
36597;SDS011;22607;49.550;11.940;2022-09-16T06:43:46;9.48;;;3.50;;
36597;SDS011;22607;49.550;11.940;2022-09-16T06:46:17;8.88;;;4.03;;
36597;SDS011;22607;49.550;11.940;2022-09-16T06:48:46;10.52;;;4.10;;
36597;SDS011;22607;49.550;11.940;2022-09-16T06:53:45;10.43;;;3.80;;
36597;SDS011;22607;49.550;11.940;2022-09-16T06:56:13;11.63;;;3.95;;
36597;SDS011;22607;49.550;11.940;2022-09-16T06:58:42;11.85;;;4.40;;
36597;SDS011;22607;49.550;11.940;2022-09-16T07:01:11;9.25;;;3.53;;
36597;SDS011;22607;49.550;11.940;2022-09-16T07:03:40;7.78;;;3.10;;
36597;SDS011;22607;49.550;11.940;2022-09-16T07:06:08;9.65;;;3.75;;
36597;SDS011;22607;49.550;11.940;2022-09-16T07:08:37;9.13;;;3.40;;
36597;SDS011;22607;49.550;11.940;2022-09-16T07:11:05;10.80;;;4.13;;
36597;SDS011;22607;49.550;11.940;2022-09-16T07:13:35;8.43;;;3.03;;
36597;SDS011;22607;49.550;11.940;2022-09-16T07:16:03;7.78;;;3.20;;
36597;SDS011;22607;49.550;11.940;2022-09-16T07:18:38;8.65;;;2.88;;
36597;SDS011;22607;49.550;11.940;2022-09-16T07:21:08;9.32;;;3.83;;
36597;SDS011;22607;49.550;11.940;2022-09-16T07:23:37;8.73;;;2.80;;
36597;SDS011;22607;49.550;11.940;2022-09-16T07:26:09;9.20;;;3.20;;
36597;SDS011;22607;49.550;11.940;2022-09-16T07:28:40;9.02;;;3.33;;
36597;SDS011;22607;49.550;11.940;2022-09-16T07:31:10;8.35;;;2.88;;
36597;SDS011;22607;49.550;11.940;2022-09-16T07:33:40;8.43;;;3.13;;
36597;SDS011;22607;49.550;11.940;2022-09-16T07:36:10;9.85;;;3.17;;
36597;SDS011;22607;49.550;11.940;2022-09-16T07:38:38;8.93;;;3.35;;
36597;SDS011;22607;49.550;11.940;2022-09-16T07:41:06;9.15;;;3.17;;
36597;SDS011;22607;49.550;11.940;2022-09-16T07:43:37;7.70;;;2.92;;
36597;SDS011;22607;49.550;11.940;2022-09-16T07:46:05;7.90;;;2.80;;
36597;SDS011;22607;49.550;11.940;2022-09-16T07:48:33;10.48;;;3.47;;
36597;SDS011;22607;49.550;11.940;2022-09-16T07:51:02;8.52;;;3.13;;
36597;SDS011;22607;49.550;11.940;2022-09-16T07:53:30;8.02;;;3.17;;
36597;SDS011;22607;49.550;11.940;2022-09-16T07:56:11;10.02;;;3.20;;
36597;SDS011;22607;49.550;11.940;2022-09-16T07:58:40;9.27;;;3.08;;
36597;SDS011;22607;49.550;11.940;2022-09-16T08:01:08;7.75;;;3.13;;
36597;SDS011;22607;49.550;11.940;2022-09-16T08:03:36;9.15;;;3.20;;
36597;SDS011;22607;49.550;11.940;2022-09-16T08:06:07;7.80;;;3.25;;
36597;SDS011;22607;49.550;11.940;2022-09-16T08:08:38;9.73;;;3.20;;
36597;SDS011;22607;49.550;11.940;2022-09-16T08:11:05;8.57;;;2.90;;
36597;SDS011;22607;49.550;11.940;2022-09-16T08:13:33;7.65;;;2.88;;
36597;SDS011;22607;49.550;11.940;2022-09-16T08:16:05;7.93;;;2.60;;
36597;SDS011;22607;49.550;11.940;2022-09-16T08:18:34;9.55;;;2.60;;
36597;SDS011;22607;49.550;11.940;2022-09-16T08:21:06;6.68;;;2.70;;
36597;SDS011;22607;49.550;11.940;2022-09-16T08:23:34;6.85;;;2.33;;
36597;SDS011;22607;49.550;11.940;2022-09-16T08:26:02;7.40;;;2.55;;
36597;SDS011;22607;49.550;11.940;2022-09-16T08:28:30;6.75;;;1.95;;
36597;SDS011;22607;49.550;11.940;2022-09-16T08:31:16;7.32;;;2.00;;
36597;SDS011;22607;49.550;11.940;2022-09-16T08:33:45;6.25;;;1.95;;
36597;SDS011;22607;49.550;11.940;2022-09-16T08:36:16;6.15;;;2.03;;
36597;SDS011;22607;49.550;11.940;2022-09-16T08:38:46;5.35;;;1.95;;
36597;SDS011;22607;49.550;11.940;2022-09-16T08:46:55;6.50;;;2.05;;
36597;SDS011;22607;49.550;11.940;2022-09-16T08:49:36;4.75;;;1.50;;
36597;SDS011;22607;49.550;11.940;2022-09-16T08:52:12;6.57;;;1.70;;
36597;SDS011;22607;49.550;11.940;2022-09-16T08:54:49;5.72;;;1.80;;
36597;SDS011;22607;49.550;11.940;2022-09-16T08:57:20;6.22;;;1.80;;
36597;SDS011;22607;49.550;11.940;2022-09-16T08:59:53;5.35;;;1.63;;
36597;SDS011;22607;49.550;11.940;2022-09-16T09:16:15;4.85;;;1.60;;
36597;SDS011;22607;49.550;11.940;2022-09-16T09:21:45;5.32;;;1.45;;
36597;SDS011;22607;49.550;11.940;2022-09-16T09:24:28;5.38;;;1.60;;
36597;SDS011;22607;49.550;11.940;2022-09-16T09:35:37;6.05;;;1.60;;
36597;SDS011;22607;49.550;11.940;2022-09-16T09:38:30;6.47;;;1.20;;
36597;SDS011;22607;49.550;11.940;2022-09-16T09:41:15;3.38;;;1.15;;
36597;SDS011;22607;49.550;11.940;2022-09-16T09:46:43;5.65;;;1.45;;
36597;SDS011;22607;49.550;11.940;2022-09-16T09:51:50;5.07;;;1.30;;
36597;SDS011;22607;49.550;11.940;2022-09-16T09:56:53;5.53;;;1.67;;
36597;SDS011;22607;49.550;11.940;2022-09-16T10:01:53;5.18;;;1.20;;
36597;SDS011;22607;49.550;11.940;2022-09-16T10:04:23;6.50;;;1.55;;
36597;SDS011;22607;49.550;11.940;2022-09-16T10:06:51;4.65;;;1.15;;
36597;SDS011;22607;49.550;11.940;2022-09-16T10:09:19;3.67;;;1.00;;
36597;SDS011;22607;49.550;11.940;2022-09-16T10:11:48;5.10;;;1.30;;
36597;SDS011;22607;49.550;11.940;2022-09-16T10:14:33;4.95;;;1.20;;
36597;SDS011;22607;49.550;11.940;2022-09-16T10:17:03;4.40;;;1.30;;
36597;SDS011;22607;49.550;11.940;2022-09-16T10:19:32;4.60;;;1.35;;
36597;SDS011;22607;49.550;11.940;2022-09-16T10:22:22;6.45;;;1.70;;
36597;SDS011;22607;49.550;11.940;2022-09-16T10:24:53;5.45;;;1.30;;
36597;SDS011;22607;49.550;11.940;2022-09-16T10:27:34;5.85;;;1.35;;
36597;SDS011;22607;49.550;11.940;2022-09-16T10:30:06;7.00;;;1.30;;
36597;SDS011;22607;49.550;11.940;2022-09-16T10:32:38;4.75;;;1.25;;
36597;SDS011;22607;49.550;11.940;2022-09-16T10:35:21;4.68;;;1.35;;
36597;SDS011;22607;49.550;11.940;2022-09-16T10:37:54;4.75;;;1.13;;
36597;SDS011;22607;49.550;11.940;2022-09-16T10:40:26;5.00;;;1.27;;
36597;SDS011;22607;49.550;11.940;2022-09-16T10:42:55;6.05;;;1.25;;
36597;SDS011;22607;49.550;11.940;2022-09-16T10:45:28;3.38;;;1.10;;
36597;SDS011;22607;49.550;11.940;2022-09-16T10:48:00;6.72;;;1.92;;
36597;SDS011;22607;49.550;11.940;2022-09-16T10:50:32;4.55;;;1.13;;
36597;SDS011;22607;49.550;11.940;2022-09-16T10:52:59;5.35;;;1.00;;
36597;SDS011;22607;49.550;11.940;2022-09-16T10:55:30;4.00;;;1.10;;
36597;SDS011;22607;49.550;11.940;2022-09-16T10:58:13;5.45;;;1.30;;
36597;SDS011;22607;49.550;11.940;2022-09-16T11:01:05;6.32;;;1.17;;
36597;SDS011;22607;49.550;11.940;2022-09-16T11:12:25;6.35;;;1.58;;
36597;SDS011;22607;49.550;11.940;2022-09-16T11:23:22;5.57;;;1.20;;
36597;SDS011;22607;49.550;11.940;2022-09-16T11:28:49;3.33;;;1.08;;
36597;SDS011;22607;49.550;11.940;2022-09-16T11:36:54;5.57;;;1.60;;
36597;SDS011;22607;49.550;11.940;2022-09-16T11:48:35;4.47;;;1.00;;
36597;SDS011;22607;49.550;11.940;2022-09-16T11:54:21;6.45;;;1.20;;
36597;SDS011;22607;49.550;11.940;2022-09-16T11:57:12;5.13;;;1.05;;
36597;SDS011;22607;49.550;11.940;2022-09-16T12:02:19;6.05;;;1.17;;
36597;SDS011;22607;49.550;11.940;2022-09-16T12:04:52;6.53;;;1.42;;
36597;SDS011;22607;49.550;11.940;2022-09-16T12:10:11;6.32;;;1.40;;
36597;SDS011;22607;49.550;11.940;2022-09-16T12:12:49;3.97;;;1.00;;
36597;SDS011;22607;49.550;11.940;2022-09-16T12:15:24;6.88;;;1.33;;
36597;SDS011;22607;49.550;11.940;2022-09-16T12:17:55;5.25;;;1.35;;
36597;SDS011;22607;49.550;11.940;2022-09-16T12:20:26;6.35;;;1.35;;
36597;SDS011;22607;49.550;11.940;2022-09-16T12:28:31;5.68;;;1.25;;
36597;SDS011;22607;49.550;11.940;2022-09-16T12:31:17;5.93;;;1.60;;
36597;SDS011;22607;49.550;11.940;2022-09-16T12:33:56;5.80;;;1.30;;
36597;SDS011;22607;49.550;11.940;2022-09-16T12:36:28;6.47;;;1.90;;
36597;SDS011;22607;49.550;11.940;2022-09-16T12:38:59;7.25;;;1.33;;
36597;SDS011;22607;49.550;11.940;2022-09-16T12:41:37;6.53;;;1.40;;
36597;SDS011;22607;49.550;11.940;2022-09-16T13:03:41;5.13;;;1.52;;
36597;SDS011;22607;49.550;11.940;2022-09-16T13:06:22;7.35;;;1.52;;
36597;SDS011;22607;49.550;11.940;2022-09-16T13:08:57;4.78;;;1.20;;
36597;SDS011;22607;49.550;11.940;2022-09-16T13:11:53;5.55;;;1.30;;
36597;SDS011;22607;49.550;11.940;2022-09-16T13:14:49;6.07;;;1.80;;
36597;SDS011;22607;49.550;11.940;2022-09-16T13:17:33;5.80;;;1.40;;
36597;SDS011;22607;49.550;11.940;2022-09-16T13:25:20;5.10;;;1.30;;
36597;SDS011;22607;49.550;11.940;2022-09-16T13:30:51;7.82;;;1.52;;
36597;SDS011;22607;49.550;11.940;2022-09-16T13:33:26;7.15;;;1.67;;
36597;SDS011;22607;49.550;11.940;2022-09-16T13:38:42;5.60;;;1.33;;
36597;SDS011;22607;49.550;11.940;2022-09-16T13:41:36;5.63;;;1.70;;
36597;SDS011;22607;49.550;11.940;2022-09-16T13:46:51;5.75;;;1.58;;
36597;SDS011;22607;49.550;11.940;2022-09-16T13:49:21;5.65;;;1.50;;
36597;SDS011;22607;49.550;11.940;2022-09-16T13:51:50;5.70;;;1.65;;
36597;SDS011;22607;49.550;11.940;2022-09-16T14:00:04;4.78;;;1.63;;
36597;SDS011;22607;49.550;11.940;2022-09-16T14:05:44;6.78;;;1.50;;
36597;SDS011;22607;49.550;11.940;2022-09-16T14:13:37;4.63;;;1.48;;
36597;SDS011;22607;49.550;11.940;2022-09-16T14:16:11;5.00;;;1.33;;
36597;SDS011;22607;49.550;11.940;2022-09-16T14:19:02;8.05;;;1.75;;
36597;SDS011;22607;49.550;11.940;2022-09-16T14:21:33;6.70;;;1.85;;
36597;SDS011;22607;49.550;11.940;2022-09-16T14:26:52;6.43;;;1.50;;
36597;SDS011;22607;49.550;11.940;2022-09-16T14:29:20;6.82;;;1.50;;
36597;SDS011;22607;49.550;11.940;2022-09-16T14:31:48;8.07;;;1.73;;
36597;SDS011;22607;49.550;11.940;2022-09-16T14:36:55;6.40;;;1.65;;
36597;SDS011;22607;49.550;11.940;2022-09-16T14:39:23;6.70;;;1.50;;
36597;SDS011;22607;49.550;11.940;2022-09-16T14:41:53;6.63;;;1.52;;
36597;SDS011;22607;49.550;11.940;2022-09-16T14:44:36;6.22;;;1.60;;
36597;SDS011;22607;49.550;11.940;2022-09-16T14:47:15;6.43;;;1.58;;
36597;SDS011;22607;49.550;11.940;2022-09-16T14:55:23;6.55;;;1.95;;
36597;SDS011;22607;49.550;11.940;2022-09-16T14:57:52;9.32;;;1.60;;
36597;SDS011;22607;49.550;11.940;2022-09-16T15:02:56;4.60;;;1.25;;
36597;SDS011;22607;49.550;11.940;2022-09-16T15:05:35;6.95;;;1.58;;
36597;SDS011;22607;49.550;11.940;2022-09-16T15:08:24;7.13;;;1.60;;
36597;SDS011;22607;49.550;11.940;2022-09-16T15:14:06;5.93;;;1.88;;
36597;SDS011;22607;49.550;11.940;2022-09-16T15:16:40;6.50;;;1.63;;
36597;SDS011;22607;49.550;11.940;2022-09-16T15:19:17;5.82;;;1.52;;
36597;SDS011;22607;49.550;11.940;2022-09-16T15:21:47;7.30;;;1.67;;
36597;SDS011;22607;49.550;11.940;2022-09-16T15:24:16;4.82;;;1.50;;
36597;SDS011;22607;49.550;11.940;2022-09-16T15:26:46;6.55;;;1.60;;
36597;SDS011;22607;49.550;11.940;2022-09-16T15:31:43;6.82;;;1.95;;
36597;SDS011;22607;49.550;11.940;2022-09-16T15:36:47;10.45;;;2.10;;
36597;SDS011;22607;49.550;11.940;2022-09-16T15:39:27;8.63;;;1.70;;
36597;SDS011;22607;49.550;11.940;2022-09-16T15:44:31;6.47;;;2.08;;
36597;SDS011;22607;49.550;11.940;2022-09-16T15:47:02;7.18;;;1.92;;
36597;SDS011;22607;49.550;11.940;2022-09-16T15:49:30;5.25;;;1.55;;
36597;SDS011;22607;49.550;11.940;2022-09-16T15:54:34;5.32;;;1.50;;
36597;SDS011;22607;49.550;11.940;2022-09-16T16:00:02;6.25;;;1.83;;
36597;SDS011;22607;49.550;11.940;2022-09-16T16:02:39;6.55;;;1.85;;
36597;SDS011;22607;49.550;11.940;2022-09-16T16:07:47;8.55;;;1.95;;
36597;SDS011;22607;49.550;11.940;2022-09-16T16:12:48;8.95;;;1.98;;
36597;SDS011;22607;49.550;11.940;2022-09-16T16:15:17;6.55;;;1.85;;
36597;SDS011;22607;49.550;11.940;2022-09-16T16:17:57;5.28;;;1.70;;
36597;SDS011;22607;49.550;11.940;2022-09-16T16:20:26;5.72;;;1.67;;
36597;SDS011;22607;49.550;11.940;2022-09-16T16:22:53;7.47;;;1.98;;
36597;SDS011;22607;49.550;11.940;2022-09-16T16:25:20;7.47;;;1.95;;
36597;SDS011;22607;49.550;11.940;2022-09-16T16:27:47;9.88;;;2.00;;
36597;SDS011;22607;49.550;11.940;2022-09-16T16:30:13;8.07;;;2.20;;
36597;SDS011;22607;49.550;11.940;2022-09-16T16:32:40;6.05;;;1.58;;
36597;SDS011;22607;49.550;11.940;2022-09-16T16:35:07;6.38;;;1.98;;
36597;SDS011;22607;49.550;11.940;2022-09-16T16:37:34;5.10;;;1.65;;
36597;SDS011;22607;49.550;11.940;2022-09-16T16:40:17;7.53;;;1.83;;
36597;SDS011;22607;49.550;11.940;2022-09-16T16:42:44;6.00;;;1.65;;
36597;SDS011;22607;49.550;11.940;2022-09-16T16:45:12;6.88;;;2.05;;
36597;SDS011;22607;49.550;11.940;2022-09-16T16:47:39;5.80;;;1.77;;
36597;SDS011;22607;49.550;11.940;2022-09-16T16:50:07;7.15;;;1.95;;
36597;SDS011;22607;49.550;11.940;2022-09-16T16:52:34;7.07;;;1.92;;
36597;SDS011;22607;49.550;11.940;2022-09-16T16:55:00;6.63;;;2.00;;
36597;SDS011;22607;49.550;11.940;2022-09-16T16:57:27;6.70;;;1.90;;
36597;SDS011;22607;49.550;11.940;2022-09-16T16:59:53;7.20;;;1.90;;
36597;SDS011;22607;49.550;11.940;2022-09-16T17:02:20;5.97;;;1.83;;
36597;SDS011;22607;49.550;11.940;2022-09-16T17:04:47;9.65;;;2.40;;
36597;SDS011;22607;49.550;11.940;2022-09-16T17:07:13;6.40;;;1.90;;
36597;SDS011;22607;49.550;11.940;2022-09-16T17:09:52;6.85;;;2.00;;
36597;SDS011;22607;49.550;11.940;2022-09-16T17:12:19;8.35;;;1.98;;
36597;SDS011;22607;49.550;11.940;2022-09-16T17:14:45;6.18;;;2.00;;
36597;SDS011;22607;49.550;11.940;2022-09-16T17:17:12;5.03;;;1.48;;
36597;SDS011;22607;49.550;11.940;2022-09-16T17:19:39;7.95;;;2.28;;
36597;SDS011;22607;49.550;11.940;2022-09-16T17:22:05;7.80;;;2.00;;
36597;SDS011;22607;49.550;11.940;2022-09-16T17:24:32;6.78;;;2.10;;
36597;SDS011;22607;49.550;11.940;2022-09-16T17:27:00;5.90;;;2.03;;
36597;SDS011;22607;49.550;11.940;2022-09-16T17:29:27;7.32;;;2.30;;
36597;SDS011;22607;49.550;11.940;2022-09-16T17:31:54;7.18;;;2.25;;
36597;SDS011;22607;49.550;11.940;2022-09-16T17:34:22;7.53;;;2.08;;
36597;SDS011;22607;49.550;11.940;2022-09-16T17:36:51;6.32;;;1.98;;
36597;SDS011;22607;49.550;11.940;2022-09-16T17:39:19;8.05;;;2.60;;
36597;SDS011;22607;49.550;11.940;2022-09-16T17:41:47;7.47;;;2.33;;
36597;SDS011;22607;49.550;11.940;2022-09-16T17:44:15;7.80;;;2.33;;
36597;SDS011;22607;49.550;11.940;2022-09-16T17:46:45;7.32;;;2.33;;
36597;SDS011;22607;49.550;11.940;2022-09-16T17:49:22;8.48;;;3.03;;
36597;SDS011;22607;49.550;11.940;2022-09-16T17:51:49;7.97;;;2.60;;
36597;SDS011;22607;49.550;11.940;2022-09-16T17:54:17;8.02;;;2.75;;
36597;SDS011;22607;49.550;11.940;2022-09-16T17:56:44;6.70;;;2.10;;
36597;SDS011;22607;49.550;11.940;2022-09-16T17:59:11;8.20;;;2.22;;
36597;SDS011;22607;49.550;11.940;2022-09-16T18:01:39;6.18;;;2.00;;
36597;SDS011;22607;49.550;11.940;2022-09-16T18:04:06;7.78;;;2.03;;
36597;SDS011;22607;49.550;11.940;2022-09-16T18:06:37;8.68;;;2.58;;
36597;SDS011;22607;49.550;11.940;2022-09-16T18:09:06;6.85;;;2.08;;
36597;SDS011;22607;49.550;11.940;2022-09-16T18:11:33;8.20;;;2.72;;
36597;SDS011;22607;49.550;11.940;2022-09-16T18:14:02;7.57;;;2.60;;
36597;SDS011;22607;49.550;11.940;2022-09-16T18:16:30;7.15;;;2.40;;
36597;SDS011;22607;49.550;11.940;2022-09-16T18:18:58;7.07;;;2.10;;
36597;SDS011;22607;49.550;11.940;2022-09-16T18:21:27;8.10;;;1.90;;
36597;SDS011;22607;49.550;11.940;2022-09-16T18:23:57;5.97;;;1.65;;
36597;SDS011;22607;49.550;11.940;2022-09-16T18:26:26;6.25;;;1.70;;
36597;SDS011;22607;49.550;11.940;2022-09-16T18:28:53;5.60;;;2.05;;
36597;SDS011;22607;49.550;11.940;2022-09-16T18:31:38;7.35;;;2.42;;
36597;SDS011;22607;49.550;11.940;2022-09-16T18:34:08;8.85;;;2.22;;
36597;SDS011;22607;49.550;11.940;2022-09-16T18:36:37;6.53;;;1.90;;
36597;SDS011;22607;49.550;11.940;2022-09-16T18:39:05;6.47;;;2.00;;
36597;SDS011;22607;49.550;11.940;2022-09-16T18:41:34;6.68;;;1.70;;
36597;SDS011;22607;49.550;11.940;2022-09-16T18:44:04;6.97;;;1.70;;
36597;SDS011;22607;49.550;11.940;2022-09-16T18:46:34;5.80;;;1.80;;
36597;SDS011;22607;49.550;11.940;2022-09-16T18:49:03;7.82;;;1.95;;